createdAt,value
2018-06-11T00:00:41.452Z,14.80
2018-06-11T00:03:08.773Z,18.95
2018-06-11T00:05:36.109Z,15.40
2018-06-11T00:08:03.628Z,19.60
2018-06-11T00:10:30.985Z,18.42
2018-06-11T00:12:58.353Z,18.40
2018-06-11T00:15:25.628Z,16.07
2018-06-11T00:17:52.950Z,18.17
2018-06-11T00:20:20.267Z,18.27
2018-06-11T00:22:47.559Z,23.70
2018-06-11T00:25:14.809Z,18.05
2018-06-11T00:27:42.157Z,18.60
2018-06-11T00:30:09.444Z,17.48
2018-06-11T00:32:36.783Z,21.05
2018-06-11T00:35:04.096Z,20.65
2018-06-11T00:37:31.445Z,20.32
2018-06-11T00:39:58.713Z,17.00
2018-06-11T00:42:25.956Z,19.85
2018-06-11T00:44:53.215Z,17.15
2018-06-11T00:47:20.527Z,19.37
2018-06-11T00:49:47.853Z,18.50
2018-06-11T00:52:15.178Z,17.65
2018-06-11T00:54:42.479Z,17.97
2018-06-11T00:57:09.700Z,18.87
2018-06-11T00:59:37.034Z,15.23
2018-06-11T01:02:04.354Z,16.10
2018-06-11T01:04:31.594Z,14.75
2018-06-11T01:06:58.938Z,17.55
2018-06-11T01:09:26.233Z,19.27
2018-06-11T01:11:53.581Z,19.70
2018-06-11T01:14:20.958Z,22.75
2018-06-11T01:16:48.367Z,23.90
2018-06-11T01:19:15.596Z,22.02
2018-06-11T01:21:42.947Z,20.00
2018-06-11T01:24:10.267Z,29.10
2018-06-11T01:26:37.632Z,18.50
2018-06-11T01:29:04.905Z,22.00
2018-06-11T01:31:32.161Z,17.55
2018-06-11T01:33:59.512Z,18.93
2018-06-11T01:36:26.749Z,17.52
2018-06-11T01:38:54.049Z,22.87
2018-06-11T01:41:21.298Z,20.35
2018-06-11T01:43:48.516Z,23.62
2018-06-11T01:46:15.825Z,17.02
2018-06-11T01:48:43.182Z,20.12
2018-06-11T01:51:10.509Z,18.50
2018-06-11T01:53:38.008Z,24.70
2018-06-11T01:56:05.661Z,23.07
2018-06-11T01:58:32.941Z,20.80
2018-06-11T02:01:00.189Z,26.68
2018-06-11T02:03:27.507Z,17.15
2018-06-11T02:05:54.779Z,17.73
2018-06-11T02:08:22.144Z,15.28
2018-06-11T02:10:49.461Z,17.70
2018-06-11T02:13:16.736Z,22.85
2018-06-11T02:15:44.080Z,18.35
2018-06-11T02:18:11.402Z,15.05
2018-06-11T02:20:38.717Z,17.35
2018-06-11T02:23:06.054Z,19.25
2018-06-11T02:25:33.346Z,26.62
2018-06-11T02:28:00.596Z,19.70
2018-06-11T02:30:27.862Z,19.65
2018-06-11T02:32:55.238Z,15.53
2018-06-11T02:35:22.495Z,21.00
2018-06-11T02:37:49.753Z,18.32
2018-06-11T02:40:17.025Z,17.45
2018-06-11T02:42:44.353Z,21.45
2018-06-11T02:45:11.599Z,18.80
2018-06-11T02:47:38.918Z,17.80
2018-06-11T02:50:06.249Z,18.57
2018-06-11T02:52:33.658Z,15.80
2018-06-11T02:55:01.086Z,22.32
2018-06-11T02:57:28.369Z,18.67
2018-06-11T02:59:55.743Z,17.87
2018-06-11T03:02:23.009Z,20.25
2018-06-11T03:04:50.317Z,19.92
2018-06-11T03:07:17.592Z,19.20
2018-06-11T03:09:44.906Z,17.65
2018-06-11T03:12:12.222Z,19.05
2018-06-11T03:14:39.444Z,21.12
2018-06-11T03:17:06.766Z,14.75
2018-06-11T03:19:34.061Z,16.77
2018-06-11T03:22:01.294Z,19.25
2018-06-11T03:24:28.630Z,21.13
2018-06-11T03:26:55.834Z,17.52
2018-06-11T03:29:23.130Z,19.45
2018-06-11T03:31:50.424Z,18.50
2018-06-11T03:34:17.645Z,14.70
2018-06-11T03:36:44.975Z,19.48
2018-06-11T03:39:12.231Z,16.40
2018-06-11T03:41:39.532Z,22.65
2018-06-11T03:44:06.816Z,18.30
2018-06-11T03:46:34.129Z,15.18
2018-06-11T03:49:01.438Z,18.05
2018-06-11T03:51:28.733Z,21.03
2018-06-11T03:53:55.999Z,17.92
2018-06-11T03:56:23.299Z,19.83
2018-06-11T03:58:50.580Z,19.00
2018-06-11T04:01:17.919Z,22.37
2018-06-11T04:03:45.240Z,22.62
2018-06-11T04:06:12.511Z,26.52
2018-06-11T04:08:39.816Z,19.20
2018-06-11T04:11:07.194Z,19.92
2018-06-11T04:13:34.456Z,20.82
2018-06-11T04:16:01.854Z,17.17
2018-06-11T04:18:29.105Z,17.20
2018-06-11T04:20:56.282Z,22.30
2018-06-11T04:23:23.652Z,19.57
2018-06-11T04:25:51.000Z,18.02
2018-06-11T04:28:18.329Z,19.30
2018-06-11T04:30:45.677Z,14.53
2018-06-11T04:33:12.984Z,16.73
2018-06-11T04:35:40.309Z,16.97
2018-06-11T04:38:07.585Z,35.38
2018-06-11T04:40:34.791Z,40.20
2018-06-11T04:43:02.042Z,40.33
2018-06-11T04:45:29.341Z,37.93
2018-06-11T04:47:56.629Z,24.18
2018-06-11T04:50:23.924Z,25.05
2018-06-11T04:52:51.253Z,23.65
2018-06-11T04:55:18.760Z,19.50
2018-06-11T04:57:46.368Z,24.95
2018-06-11T05:00:13.677Z,35.23
2018-06-11T05:02:40.995Z,25.20
2018-06-11T05:05:08.361Z,26.25
2018-06-11T05:07:35.680Z,32.63
2018-06-11T05:10:03.203Z,35.90
2018-06-11T05:12:30.405Z,31.97
2018-06-11T05:15:05.239Z,33.13
2018-06-11T05:17:32.562Z,34.53
2018-06-11T05:19:59.897Z,28.32
2018-06-11T05:22:27.170Z,24.25
2018-06-11T05:24:54.411Z,20.72
2018-06-11T05:27:21.690Z,21.97
2018-06-11T05:29:48.967Z,30.12
2018-06-11T05:32:16.223Z,27.32
2018-06-11T05:34:43.485Z,19.92
2018-06-11T05:37:10.764Z,31.30
2018-06-11T05:39:38.028Z,28.25
2018-06-11T05:42:05.533Z,27.42
2018-06-11T05:44:32.919Z,22.27
2018-06-11T05:47:00.193Z,22.10
2018-06-11T05:49:27.572Z,27.77
2018-06-11T05:51:54.927Z,25.50
2018-06-11T05:54:22.242Z,33.73
2018-06-11T05:56:49.439Z,36.75
2018-06-11T05:59:16.770Z,26.30
2018-06-11T06:01:44.130Z,17.92
2018-06-11T06:04:11.492Z,21.05
2018-06-11T06:06:38.695Z,24.50
2018-06-11T06:09:06.671Z,23.98
2018-06-11T06:11:34.047Z,22.80
2018-06-11T06:14:01.548Z,24.37
2018-06-11T06:16:28.800Z,20.27
2018-06-11T06:18:56.059Z,17.40
2018-06-11T06:21:23.348Z,20.82
2018-06-11T06:23:50.621Z,21.60
2018-06-11T06:26:18.016Z,19.82
2018-06-11T06:28:45.318Z,16.80
2018-06-11T06:31:12.587Z,20.25
2018-06-11T06:33:39.866Z,23.00
2018-06-11T06:36:07.259Z,15.50
2018-06-11T06:38:34.482Z,24.20
2018-06-11T06:41:01.789Z,17.12
2018-06-11T06:43:29.091Z,17.10
2018-06-11T06:45:56.372Z,22.77
2018-06-11T06:48:23.746Z,15.45
2018-06-11T06:50:51.107Z,17.07
2018-06-11T06:53:18.392Z,19.57
2018-06-11T06:55:45.694Z,19.10
2018-06-11T06:58:12.985Z,16.60
2018-06-11T07:00:40.260Z,14.85
2018-06-11T07:03:07.594Z,18.80
2018-06-11T07:05:34.825Z,19.15
2018-06-11T07:08:02.101Z,19.48
2018-06-11T07:10:29.476Z,19.40
2018-06-11T07:12:56.775Z,15.63
2018-06-11T07:15:24.093Z,14.77
2018-06-11T07:17:51.353Z,15.65
2018-06-11T07:20:18.613Z,17.85
2018-06-11T07:22:45.875Z,15.53
2018-06-11T07:25:13.370Z,13.80
2018-06-11T07:27:40.699Z,13.45
2018-06-11T07:30:07.979Z,14.25
2018-06-11T07:32:35.332Z,13.93
2018-06-11T07:35:02.751Z,14.68
2018-06-11T07:37:30.109Z,15.20
2018-06-11T07:39:57.384Z,14.70
2018-06-11T07:42:24.679Z,13.43
2018-06-11T07:44:52.065Z,13.65
2018-06-11T07:47:19.363Z,20.12
2018-06-11T07:49:46.720Z,18.27
2018-06-11T07:52:14.071Z,19.27
2018-06-11T07:54:41.287Z,14.43
2018-06-11T07:57:08.654Z,14.68
2018-06-11T07:59:35.984Z,15.40
2018-06-11T08:02:03.388Z,16.97
2018-06-11T08:04:30.612Z,14.83
2018-06-11T08:06:57.946Z,16.40
2018-06-11T08:09:25.210Z,16.10
2018-06-11T08:11:52.498Z,17.95
2018-06-11T08:14:19.746Z,16.57
2018-06-11T08:16:47.040Z,15.38
2018-06-11T08:19:14.272Z,17.87
2018-06-11T08:21:41.551Z,16.60
2018-06-11T08:24:08.809Z,15.58
2018-06-11T08:26:36.147Z,20.65
2018-06-11T08:29:03.459Z,13.43
2018-06-11T08:31:30.734Z,15.30
2018-06-11T08:33:58.090Z,16.70
2018-06-11T08:36:25.446Z,15.75
2018-06-11T08:38:52.684Z,11.75
2018-06-11T08:41:19.911Z,11.70
2018-06-11T08:43:47.145Z,13.68
2018-06-11T08:46:14.456Z,12.10
2018-06-11T08:48:41.759Z,12.07
2018-06-11T08:51:09.071Z,11.73
2018-06-11T08:53:36.370Z,13.68
2018-06-11T08:56:03.715Z,12.80
2018-06-11T08:58:30.983Z,20.50
2018-06-11T09:00:58.361Z,11.78
2018-06-11T09:03:25.627Z,16.02
2018-06-11T09:05:52.971Z,13.22
2018-06-11T09:08:20.313Z,10.43
2018-06-11T09:10:47.612Z,11.47
2018-06-11T09:13:14.953Z,10.03
2018-06-11T09:15:42.322Z,12.82
2018-06-11T09:20:46.675Z,12.18
2018-06-11T09:23:14.006Z,15.70
2018-06-11T09:25:41.382Z,13.13
2018-06-11T09:28:08.973Z,10.15
2018-06-11T09:30:36.395Z,16.00
2018-06-11T09:33:03.759Z,14.43
2018-06-11T09:35:31.049Z,15.53
2018-06-11T09:40:31.359Z,17.60
2018-06-11T09:42:58.960Z,13.05
2018-06-11T09:45:26.246Z,15.32
2018-06-11T09:47:58.012Z,17.98
2018-06-11T09:50:25.242Z,19.00
2018-06-11T09:52:52.534Z,14.07
2018-06-11T09:55:20.063Z,16.27
2018-06-11T09:57:47.332Z,12.93
2018-06-11T10:00:20.350Z,15.25
2018-06-11T10:02:47.662Z,14.70
2018-06-11T10:05:14.950Z,11.08
2018-06-11T10:07:42.286Z,12.55
2018-06-11T10:10:09.607Z,11.33
2018-06-11T10:12:37.068Z,11.48
2018-06-11T10:15:04.486Z,12.93
2018-06-11T10:17:31.906Z,10.65
2018-06-11T10:19:59.241Z,9.70
2018-06-11T10:22:26.588Z,11.90
2018-06-11T10:24:53.921Z,9.00
2018-06-11T10:27:21.256Z,10.70
2018-06-11T10:29:48.621Z,11.80
2018-06-11T10:32:15.951Z,11.80
2018-06-11T10:34:43.188Z,12.17
2018-06-11T10:37:10.532Z,9.75
2018-06-11T10:39:37.877Z,10.28
2018-06-11T10:42:05.330Z,12.97
2018-06-11T10:44:32.973Z,9.28
2018-06-11T10:47:00.593Z,9.95
2018-06-11T10:49:28.262Z,11.65
2018-06-11T10:51:56.233Z,11.22
2018-06-11T10:54:23.797Z,8.93
2018-06-11T10:56:51.595Z,11.10
2018-06-11T10:59:18.854Z,12.93
2018-06-11T11:01:46.172Z,9.57
2018-06-11T11:04:13.494Z,10.08
2018-06-11T11:06:40.799Z,9.33
2018-06-11T11:09:08.147Z,15.53
2018-06-11T11:11:35.468Z,14.07
2018-06-11T11:14:02.860Z,12.50
2018-06-11T11:16:30.170Z,8.40
2018-06-11T11:18:57.547Z,12.53
2018-06-11T11:21:24.923Z,9.68
2018-06-11T11:23:52.302Z,10.40
2018-06-11T11:26:19.633Z,10.30
2018-06-11T11:28:46.906Z,11.25
2018-06-11T11:31:14.142Z,8.67
2018-06-11T11:33:41.526Z,10.13
2018-06-11T11:36:08.752Z,9.98
2018-06-11T11:38:36.102Z,12.55
2018-06-11T11:41:03.399Z,15.30
2018-06-11T11:43:30.763Z,13.68
2018-06-11T11:45:58.090Z,10.85
2018-06-11T11:48:25.435Z,12.55
2018-06-11T11:53:45.858Z,12.07
2018-06-11T11:56:13.207Z,13.35
2018-06-11T11:58:40.529Z,20.77
2018-06-11T12:01:07.841Z,15.90
2018-06-11T12:03:35.264Z,18.67
2018-06-11T12:06:02.702Z,8.88
2018-06-11T12:08:30.178Z,10.38
2018-06-11T12:10:57.459Z,12.23
2018-06-11T12:13:24.957Z,11.18
2018-06-11T12:15:52.246Z,14.15
2018-06-11T12:21:12.167Z,10.43
2018-06-11T12:23:39.523Z,8.30
2018-06-11T12:26:06.870Z,9.10
2018-06-11T12:28:52.862Z,12.40
2018-06-11T12:31:20.192Z,7.75
2018-06-11T12:33:47.653Z,10.82
2018-06-11T12:36:14.981Z,8.03
2018-06-11T12:38:46.160Z,10.00
2018-06-11T12:41:13.702Z,7.28
2018-06-11T12:43:40.990Z,5.58
2018-06-11T12:46:08.282Z,8.48
2018-06-11T12:48:35.625Z,6.87
2018-06-11T12:51:02.918Z,11.83
2018-06-11T12:53:30.245Z,12.35
2018-06-11T12:55:57.624Z,11.50
2018-06-11T12:58:24.883Z,7.40
2018-06-11T13:00:52.204Z,9.40
2018-06-11T13:03:19.559Z,9.98
2018-06-11T13:05:46.904Z,7.73
2018-06-11T13:08:14.292Z,9.48
2018-06-11T13:10:41.655Z,7.12
2018-06-11T13:13:08.983Z,10.55
2018-06-11T13:15:36.298Z,8.25
2018-06-11T13:18:03.669Z,8.25
2018-06-11T13:20:30.939Z,6.73
2018-06-11T13:22:58.317Z,11.97
2018-06-11T13:25:25.655Z,10.28
2018-06-11T13:27:52.947Z,12.35
2018-06-11T13:30:20.230Z,9.78
2018-06-11T13:32:47.705Z,12.03
2018-06-11T13:35:15.025Z,9.30
2018-06-11T13:37:42.513Z,9.70
2018-06-11T13:40:09.816Z,8.00
2018-06-11T13:42:37.100Z,11.22
2018-06-11T13:45:04.693Z,11.78
2018-06-11T13:47:32.196Z,11.27
2018-06-11T13:49:59.549Z,16.10
2018-06-11T13:52:26.912Z,13.90
2018-06-11T13:54:54.205Z,16.15
2018-06-11T13:57:21.475Z,8.85
2018-06-11T13:59:48.798Z,10.88
2018-06-11T14:02:16.089Z,13.55
2018-06-11T14:04:43.443Z,14.05
2018-06-11T14:07:10.762Z,13.93
2018-06-11T14:09:38.113Z,15.88
2018-06-11T14:12:05.515Z,14.20
2018-06-11T14:14:32.889Z,13.70
2018-06-11T14:17:00.179Z,9.50
2018-06-11T14:19:27.416Z,10.32
2018-06-11T14:21:54.705Z,11.03
2018-06-11T14:24:22.027Z,10.55
2018-06-11T14:26:49.312Z,9.98
2018-06-11T14:29:16.678Z,13.80
2018-06-11T14:31:44.052Z,15.05
2018-06-11T14:34:11.328Z,9.73
2018-06-11T14:36:38.653Z,9.48
2018-06-11T14:39:07.867Z,11.85
2018-06-11T14:41:35.179Z,11.30
2018-06-11T14:44:02.492Z,12.05
2018-06-11T14:46:29.762Z,12.18
2018-06-11T14:48:57.066Z,11.97
2018-06-11T14:51:24.372Z,16.80
2018-06-11T14:53:51.643Z,12.00
2018-06-11T14:56:19.000Z,6.50
2018-06-11T14:58:46.246Z,9.80
2018-06-11T15:01:13.555Z,9.33
2018-06-11T15:03:40.849Z,13.03
2018-06-11T15:06:08.239Z,13.78
2018-06-11T15:08:35.560Z,10.60
2018-06-11T15:11:02.853Z,14.85
2018-06-11T15:13:30.165Z,12.50
2018-06-11T15:15:57.484Z,13.95
2018-06-11T15:18:24.830Z,9.20
2018-06-11T15:20:52.122Z,17.07
2018-06-11T15:23:19.351Z,12.18
2018-06-11T15:25:46.581Z,13.35
2018-06-11T15:28:13.874Z,16.77
2018-06-11T15:30:41.189Z,14.40
2018-06-11T15:33:08.557Z,10.82
2018-06-11T15:35:35.894Z,11.90
2018-06-11T15:38:03.213Z,9.70
2018-06-11T15:40:30.446Z,13.77
2018-06-11T15:42:57.784Z,10.72
2018-06-11T15:45:25.065Z,8.30
2018-06-11T15:47:52.334Z,12.18
2018-06-11T15:50:19.648Z,11.70
2018-06-11T15:52:46.955Z,9.10
2018-06-11T15:55:14.286Z,7.70
2018-06-11T15:57:41.704Z,7.85
2018-06-11T16:00:08.983Z,7.37
2018-06-11T16:02:36.250Z,8.88
2018-06-11T16:05:03.650Z,9.08
2018-06-11T16:07:30.914Z,9.30
2018-06-11T16:09:58.247Z,7.33
2018-06-11T16:12:25.565Z,8.30
2018-06-11T16:14:54.876Z,10.48
2018-06-11T16:17:22.317Z,9.88
2018-06-11T16:19:49.860Z,9.20
2018-06-11T16:22:17.221Z,8.53
2018-06-11T16:24:44.742Z,13.58
2018-06-11T16:27:12.042Z,6.08
2018-06-11T16:29:39.348Z,5.25
2018-06-11T16:32:06.739Z,7.80
2018-06-11T16:34:34.030Z,6.25
2018-06-11T16:37:01.285Z,5.70
2018-06-11T16:39:28.522Z,4.90
2018-06-11T16:41:56.209Z,4.78
2018-06-11T16:44:23.516Z,7.22
2018-06-11T16:46:51.261Z,6.97
2018-06-11T16:49:18.527Z,6.58
2018-06-11T16:51:45.799Z,15.30
2018-06-11T16:54:13.105Z,10.98
2018-06-11T16:56:40.398Z,11.00
2018-06-11T16:59:07.625Z,9.75
2018-06-11T17:01:34.826Z,8.33
2018-06-11T17:04:02.214Z,8.78
2018-06-11T17:06:29.434Z,11.70
2018-06-11T17:08:56.834Z,6.37
2018-06-11T17:11:24.273Z,7.93
2018-06-11T17:13:51.765Z,12.70
2018-06-11T17:16:19.065Z,10.05
2018-06-11T17:18:46.447Z,5.97
2018-06-11T17:21:13.779Z,7.65
2018-06-11T17:23:42.267Z,8.13
2018-06-11T17:26:09.610Z,8.43
2018-06-11T17:28:36.936Z,6.97
2018-06-11T17:31:04.220Z,5.67
2018-06-11T17:33:31.510Z,6.87
2018-06-11T17:35:58.850Z,7.70
2018-06-11T17:38:35.564Z,6.17
2018-06-11T17:41:03.020Z,3.62
2018-06-11T17:43:30.270Z,4.35
2018-06-11T17:45:57.540Z,4.87
2018-06-11T17:48:24.842Z,5.50
2018-06-11T17:50:52.206Z,4.55
2018-06-11T17:53:19.514Z,4.87
2018-06-11T17:55:46.734Z,4.87
2018-06-11T17:58:14.012Z,5.30
2018-06-11T18:00:41.328Z,2.90
2018-06-11T18:03:08.659Z,4.33
2018-06-11T18:05:35.960Z,2.47
2018-06-11T18:08:03.320Z,2.90
2018-06-11T18:10:30.671Z,4.53
2018-06-11T18:12:57.914Z,4.00
2018-06-11T18:15:25.296Z,10.90
2018-06-11T18:17:52.597Z,3.83
2018-06-11T18:20:19.839Z,3.25
2018-06-11T18:22:47.059Z,3.37
2018-06-11T18:25:47.775Z,2.10
2018-06-11T18:28:15.089Z,2.62
2018-06-11T18:30:42.446Z,3.73
2018-06-11T18:33:09.773Z,3.37
2018-06-11T18:35:37.069Z,3.15
2018-06-11T18:38:04.446Z,3.80
2018-06-11T18:40:31.733Z,2.90
2018-06-11T18:42:59.076Z,2.85
2018-06-11T18:45:26.491Z,4.45
2018-06-11T18:48:06.458Z,4.83
2018-06-11T18:50:35.188Z,2.63
2018-06-11T18:53:02.496Z,4.20
2018-06-11T18:55:29.755Z,3.00
2018-06-11T18:57:57.145Z,3.52
2018-06-11T19:00:24.468Z,6.47
2018-06-11T19:02:51.743Z,3.60
2018-06-11T19:05:19.021Z,4.05
2018-06-11T19:07:46.294Z,3.95
2018-06-11T19:10:13.612Z,3.42
2018-06-11T19:12:40.888Z,5.10
2018-06-11T19:15:08.295Z,4.72
2018-06-11T19:17:35.572Z,7.10
2018-06-11T19:20:03.553Z,7.00
2018-06-11T19:22:30.988Z,9.30
2018-06-11T19:25:07.413Z,9.90
2018-06-11T19:27:40.833Z,10.70
2018-06-11T19:30:08.554Z,11.40
2018-06-11T19:32:35.827Z,9.25
2018-06-11T19:35:03.211Z,8.50
2018-06-11T19:37:30.516Z,9.88
2018-06-11T19:39:58.091Z,19.17
2018-06-11T19:42:25.502Z,18.87
2018-06-11T19:44:53.454Z,11.25
2018-06-11T19:47:20.811Z,13.03
2018-06-11T19:49:48.189Z,9.58
2018-06-11T19:52:22.212Z,10.00
2018-06-11T19:54:50.239Z,8.20
2018-06-11T19:57:23.095Z,12.55
2018-06-11T19:59:54.345Z,12.18
2018-06-11T20:02:21.840Z,10.93
2018-06-11T20:04:49.198Z,12.58
2018-06-11T20:07:16.481Z,12.80
2018-06-11T20:09:44.229Z,11.30
2018-06-11T20:12:15.324Z,8.33
2018-06-11T20:17:35.982Z,10.80
2018-06-11T20:20:03.407Z,9.20
2018-06-11T20:22:30.834Z,12.18
2018-06-11T20:24:58.286Z,9.73
2018-06-11T20:27:25.583Z,9.48
2018-06-11T20:29:52.924Z,10.80
2018-06-11T20:32:20.897Z,9.53
2018-06-11T20:34:48.321Z,8.23
2018-06-11T20:37:16.616Z,8.75
2018-06-11T20:39:47.998Z,12.40
2018-06-11T20:42:19.009Z,11.97
2018-06-11T20:44:46.446Z,12.55
2018-06-11T20:47:13.757Z,7.78
2018-06-11T20:49:41.063Z,8.03
2018-06-11T20:52:08.300Z,8.93
2018-06-11T20:54:35.650Z,8.98
2018-06-11T20:57:02.972Z,10.10
2018-06-11T20:59:30.268Z,11.40
2018-06-11T21:01:57.640Z,10.63
2018-06-11T21:04:25.077Z,7.43
2018-06-11T21:06:52.407Z,8.58
2018-06-11T21:09:19.732Z,10.32
2018-06-11T21:11:47.113Z,12.20
2018-06-11T21:14:14.469Z,10.00
2018-06-11T21:16:41.833Z,9.10
2018-06-11T21:19:09.136Z,9.00
2018-06-11T21:21:36.477Z,10.63
2018-06-11T21:24:03.793Z,12.00
2018-06-11T21:26:31.146Z,11.65
2018-06-11T21:28:58.434Z,10.63
2018-06-11T21:31:25.673Z,9.48
2018-06-11T21:33:53.108Z,10.13
2018-06-11T21:36:20.490Z,14.20
2018-06-11T21:38:47.851Z,8.33
2018-06-11T21:41:15.162Z,10.70
2018-06-11T21:43:42.543Z,13.20
2018-06-11T21:46:10.047Z,10.08
2018-06-11T21:48:37.370Z,10.63
2018-06-11T21:51:04.787Z,12.58
2018-06-11T21:53:32.230Z,12.33
2018-06-11T21:55:59.506Z,13.68
2018-06-11T21:58:26.774Z,10.68
2018-06-11T22:00:54.149Z,8.45
2018-06-11T22:03:21.450Z,11.65
2018-06-11T22:05:48.938Z,12.87
2018-06-11T22:08:16.291Z,15.55
2018-06-11T22:10:43.549Z,14.23
2018-06-11T22:13:10.922Z,13.40
2018-06-11T22:15:38.247Z,10.30
2018-06-11T22:18:05.728Z,13.08
2018-06-11T22:20:33.063Z,9.90
2018-06-11T22:23:00.268Z,15.10
2018-06-11T22:25:27.564Z,9.88
2018-06-11T22:27:54.848Z,9.58
2018-06-11T22:30:22.191Z,16.53
2018-06-11T22:32:49.382Z,10.48
2018-06-11T22:35:16.731Z,19.60
2018-06-11T22:37:44.084Z,13.60
2018-06-11T22:40:11.376Z,12.88
2018-06-11T22:42:38.756Z,12.10
2018-06-11T22:45:06.123Z,13.55
2018-06-11T22:47:33.500Z,14.97
2018-06-11T22:50:00.892Z,14.28
2018-06-11T22:52:28.350Z,13.78
2018-06-11T22:54:55.677Z,14.50
2018-06-11T22:57:23.002Z,15.88
2018-06-11T22:59:50.293Z,20.72
2018-06-11T23:02:17.673Z,18.00
2018-06-11T23:04:44.947Z,15.95
2018-06-11T23:07:12.225Z,18.43
2018-06-11T23:09:39.536Z,16.02
2018-06-11T23:12:06.903Z,18.40
2018-06-11T23:14:34.287Z,16.02
2018-06-11T23:17:01.707Z,16.30
2018-06-11T23:19:29.038Z,17.57
2018-06-11T23:21:56.438Z,19.80
2018-06-11T23:24:23.718Z,12.35
2018-06-11T23:26:50.923Z,14.67
2018-06-11T23:29:18.267Z,15.18
2018-06-11T23:31:45.666Z,14.03
2018-06-11T23:34:12.994Z,13.60
2018-06-11T23:36:40.224Z,16.12
2018-06-11T23:39:07.562Z,15.55
2018-06-11T23:41:35.039Z,12.53
2018-06-11T23:44:03.149Z,14.47
2018-06-11T23:46:30.466Z,15.65
2018-06-11T23:48:57.743Z,15.32
2018-06-11T23:51:25.225Z,14.25
2018-06-11T23:53:52.572Z,15.50
2018-06-11T23:56:19.840Z,14.75
2018-06-11T23:58:47.176Z,12.60
